Terminal Aerodrome Forecast
Issued by NWS Quad Cities IA IL

Home | Current Version | Previous Version | Text Only | Print | Product List | Glossary On
Versions: 1 2 3 4 5 6 7 8 9 10 11 12 13 14 15 16 17 18 19 20 21 22 23 24 25 26 27
186
FTUS43 KDVN 250412 AAA
TAFMLI
TAF AMD
KMLI 250412Z 2504/2524 32009KT 3SM BR VCSH SCT007 OVC015
      TEMPO 2504/2506 1SM -SN BR BKN006 OVC012
     FM250600 32013G22KT 4SM -SN BR OVC009
     FM250800 32016G27KT 6SM BR VCSH OVC015
     FM251200 30014G22KT P6SM SKC=

USA.gov is the U.S. government's official web portal to all federal, state and local government web resources and services.